Back to Top

Language: 

My Weather Underground Personal Weather Station Historical Data with Graphs...

Delerius Weather Station Historical Data
Daily Summary for July 5, 2017 Units:  English    Metric   Both
« Previous Day
Next Day »
Daily Weekly Monthly Yearly Custom
  High: Low: Average:
Temperature: 70.0 °F 54.3 °F 60.8 °F
Dew Point: 59.3 °F 51.6 °F 56 °F
Humidity: 93 % 69 % 85 %
Wind Speed: 7.0 mph 0.0 mph 2.5 mph
Wind Gust: 12.0 mph - -
Wind:- - East
Pressure: 30.11 in 30.06 in -
Precipitation: 0.00 in    
Historical Graphs
 
 
Tabular Data for July 5, 2017
Time Temperature Dew Point Pressure Wind Wind Speed Wind Gust Humidity Rainfall Rate (Hourly) solar Conditions
00:03 58.6 °F 54.1 °F 30.07 in Calm     85 % 0.00 in 0 W/m2
00:08 58.3 °F 53.8 °F 30.06 in Calm   1.0 mph 85 % 0.00 in 0 W/m2
00:13 57.9 °F 53.4 °F 30.06 in Calm   1.0 mph 85 % 0.00 in 0 W/m2
00:18 57.7 °F 53.6 °F 30.06 in Calm     86 % 0.00 in 0 W/m2
00:23 57.6 °F 53.4 °F 30.06 in Calm     86 % 0.00 in 0 W/m2
00:28 57.4 °F 53.2 °F 30.06 in Calm     86 % 0.00 in 0 W/m2
00:33 57.2 °F 53.0 °F 30.06 in Calm     86 % 0.00 in 0 W/m2
00:38 57.0 °F 53.2 °F 30.06 in Calm     87 % 0.00 in 0 W/m2
00:43 56.8 °F 53.0 °F 30.06 in Calm     87 % 0.00 in 0 W/m2
00:48 56.7 °F 53.1 °F 30.06 in Calm     88 % 0.00 in 0 W/m2
00:53 56.7 °F 53.1 °F 30.06 in Calm     88 % 0.00 in 0 W/m2
00:58 56.5 °F 53.0 °F 30.06 in Calm   2.0 mph 88 % 0.00 in 0 W/m2
01:03 56.5 °F 53.0 °F 30.06 in Calm   2.0 mph 88 % 0.00 in 0 W/m2
01:08 56.3 °F 53.1 °F 30.06 in Calm     89 % 0.00 in 0 W/m2
01:13 56.1 °F 52.9 °F 30.06 in Calm   1.0 mph 89 % 0.00 in 0 W/m2
01:18 56.1 °F 53.2 °F 30.06 in Calm   1.0 mph 90 % 0.00 in 0 W/m2
01:23 56.1 °F 53.2 °F 30.06 in Calm   1.0 mph 90 % 0.00 in 0 W/m2
01:28 56.1 °F 52.9 °F 30.06 in Calm   1.0 mph 89 % 0.00 in 0 W/m2
01:33 55.9 °F 52.7 °F 30.06 in Calm   2.0 mph 89 % 0.00 in 0 W/m2
01:38 55.8 °F 52.6 °F 30.06 in WSW 1.0 mph 5.0 mph 89 % 0.00 in 0 W/m2
01:43 55.6 °F 52.4 °F 30.06 in WSW 1.0 mph 5.0 mph 89 % 0.00 in 0 W/m2
01:48 55.2 °F 52.3 °F 30.06 in Calm   1.0 mph 90 % 0.00 in 0 W/m2
01:53 55.0 °F 52.2 °F 30.07 in WSW 1.0 mph 5.0 mph 90 % 0.00 in 0 W/m2
01:58 54.9 °F 52.0 °F 30.07 in WSW 2.0 mph 5.0 mph 90 % 0.00 in 0 W/m2
02:03 54.9 °F 52.3 °F 30.06 in WSW 1.0 mph 4.0 mph 91 % 0.00 in 0 W/m2
02:08 54.7 °F 51.8 °F 30.06 in WSW 1.0 mph 4.0 mph 90 % 0.00 in 0 W/m2
02:13 54.5 °F 51.6 °F 30.07 in WSW 1.0 mph 4.0 mph 90 % 0.00 in 0 W/m2
02:18 54.3 °F 51.7 °F 30.06 in Calm   4.0 mph 91 % 0.00 in 0 W/m2
02:23 54.3 °F 51.7 °F 30.06 in Calm   5.0 mph 91 % 0.00 in 0 W/m2
02:28 54.3 °F 52.0 °F 30.06 in Calm   5.0 mph 92 % 0.00 in 0 W/m2
02:33 54.3 °F 52.0 °F 30.07 in Calm   2.0 mph 92 % 0.00 in 0 W/m2
02:38 54.7 °F 52.4 °F 30.06 in Calm   2.0 mph 92 % 0.00 in 0 W/m2
02:43 54.7 °F 52.4 °F 30.06 in Calm     92 % 0.00 in 0 W/m2
02:48 54.7 °F 52.4 °F 30.06 in Calm     92 % 0.00 in 0 W/m2
02:49 54.7 °F 52.4 °F 30.06 in Calm     92 % 0.00 in 0 W/m2
02:54 54.7 °F 52.4 °F 30.06 in Calm     92 % 0.00 in 0 W/m2
02:59 54.7 °F 52.4 °F 30.06 in Calm   1.0 mph 92 % 0.00 in 0 W/m2
03:04 54.7 °F 52.4 °F 30.06 in Calm   2.0 mph 92 % 0.00 in 0 W/m2
03:09 54.9 °F 52.6 °F 30.06 in Calm   2.0 mph 92 % 0.00 in 0 W/m2
03:14 54.7 °F 52.4 °F 30.06 in Calm     92 % 0.00 in 0 W/m2
03:19 54.7 °F 52.4 °F 30.06 in Calm   2.0 mph 92 % 0.00 in 0 W/m2
03:24 54.7 °F 52.4 °F 30.06 in Calm   2.0 mph 92 % 0.00 in 0 W/m2
03:29 54.9 °F 52.6 °F 30.06 in Calm   1.0 mph 92 % 0.00 in 0 W/m2
03:34 54.9 °F 52.6 °F 30.06 in Calm   1.0 mph 92 % 0.00 in 0 W/m2
03:39 55.0 °F 52.8 °F 30.06 in Calm   1.0 mph 92 % 0.00 in 0 W/m2
03:44 55.0 °F 52.8 °F 30.06 in Calm   2.0 mph 92 % 0.00 in 0 W/m2
03:49 55.2 °F 53.2 °F 30.06 in Calm   2.0 mph 93 % 0.00 in 0 W/m2
03:54 55.4 °F 53.1 °F 30.06 in Calm     92 % 0.00 in 0 W/m2
03:59 55.6 °F 53.3 °F 30.06 in Calm     92 % 0.00 in 0 W/m2
04:04 55.6 °F 53.3 °F 30.06 in Calm     92 % 0.00 in 0 W/m2
04:09 55.6 °F 53.3 °F 30.06 in Calm     92 % 0.00 in 0 W/m2
04:14 55.8 °F 53.5 °F 30.06 in Calm     92 % 0.00 in 0 W/m2
04:19 55.9 °F 53.6 °F 30.06 in Calm     92 % 0.00 in 0 W/m2
04:24 55.9 °F 53.6 °F 30.06 in Calm     92 % 0.00 in 0 W/m2
04:29 56.1 °F 53.8 °F 30.06 in Calm     92 % 0.00 in 0 W/m2
04:34 56.3 °F 54.0 °F 30.06 in Calm     92 % 0.00 in 0 W/m2
04:39 56.5 °F 54.2 °F 30.07 in Calm     92 % 0.00 in 0 W/m2
04:44 56.5 °F 54.2 °F 30.07 in Calm     92 % 0.00 in 0 W/m2
04:49 56.5 °F 54.2 °F 30.07 in Calm     92 % 0.00 in 0 W/m2
04:54 56.7 °F 54.4 °F 30.07 in Calm     92 % 0.00 in 0 W/m2
04:59 56.7 °F 54.1 °F 30.07 in Calm     91 % 0.00 in 0 W/m2
05:04 56.7 °F 54.1 °F 30.07 in Calm     91 % 0.00 in 5 W/m2
05:09 56.8 °F 54.2 °F 30.07 in Calm     91 % 0.00 in 7 W/m2
05:14 56.8 °F 54.2 °F 30.07 in Calm     91 % 0.00 in 9 W/m2
05:19 56.8 °F 54.2 °F 30.07 in Calm     91 % 0.00 in 9 W/m2
05:25 56.8 °F 54.2 °F 30.07 in Calm     91 % 0.00 in 11 W/m2
05:30 57.0 °F 54.4 °F 30.07 in Calm   1.0 mph 91 % 0.00 in 14 W/m2
05:34 57.0 °F 54.4 °F 30.07 in Calm   1.0 mph 91 % 0.00 in 12 W/m2
05:39 57.2 °F 54.6 °F 30.07 in Calm     91 % 0.00 in 14 W/m2
05:45 57.4 °F 54.8 °F 30.07 in Calm     91 % 0.00 in 16 W/m2
05:50 57.6 °F 55.0 °F 30.07 in Calm     91 % 0.00 in 14 W/m2
05:55 57.6 °F 55.0 °F 30.07 in Calm     91 % 0.00 in 11 W/m2
06:00 57.6 °F 55.0 °F 30.07 in Calm     91 % 0.00 in 9 W/m2
06:01 57.6 °F 55.0 °F 30.07 in Calm     91 % 0.00 in 9 W/m2
06:06 57.6 °F 55.0 °F 30.07 in Calm     91 % 0.00 in 9 W/m2
06:11 57.6 °F 55.0 °F 30.08 in Calm     91 % 0.00 in 9 W/m2
06:16 57.7 °F 55.1 °F 30.08 in Calm     91 % 0.00 in 11 W/m2
06:21 57.7 °F 55.1 °F 30.08 in Calm   5.0 mph 91 % 0.00 in 11 W/m2
06:26 57.7 °F 55.1 °F 30.08 in North 1.0 mph 5.0 mph 91 % 0.00 in 16 W/m2
06:31 57.9 °F 55.3 °F 30.08 in North 2.0 mph 5.0 mph 91 % 0.00 in 21 W/m2
06:36 58.3 °F 56.0 °F 30.08 in North 3.0 mph 8.0 mph 92 % 0.00 in 26 W/m2
06:41 58.5 °F 56.1 °F 30.08 in North 4.0 mph 8.0 mph 92 % 0.00 in 28 W/m2
06:43 58.5 °F 56.1 °F 30.08 in North 5.0 mph 8.0 mph 92 % 0.00 in 28 W/m2
06:48 58.5 °F 56.1 °F 30.08 in North 5.0 mph 8.0 mph 92 % 0.00 in 26 W/m2
06:53 58.5 °F 56.1 °F 30.08 in North 5.0 mph 8.0 mph 92 % 0.00 in 46 W/m2
06:58 58.5 °F 56.1 °F 30.08 in NNE 5.0 mph 8.0 mph 92 % 0.00 in 26 W/m2
07:03 58.3 °F 56.0 °F 30.08 in NNE 5.0 mph 8.0 mph 92 % 0.00 in 33 W/m2
07:08 58.3 °F 56.0 °F 30.08 in NNE 5.0 mph 9.0 mph 92 % 0.00 in 42 W/m2
07:13 57.9 °F 55.6 °F 30.09 in NNE 6.0 mph 10.0 mph 92 % 0.00 in 40 W/m2
07:18 57.7 °F 55.4 °F 30.09 in NNE 6.0 mph 10.0 mph 92 % 0.00 in 51 W/m2
07:23 57.6 °F 55.3 °F 30.09 in NNE 6.0 mph 9.0 mph 92 % 0.00 in 42 W/m2
07:28 57.4 °F 55.1 °F 30.09 in NNE 6.0 mph 10.0 mph 92 % 0.00 in 44 W/m2
07:33 57.2 °F 54.9 °F 30.09 in NNE 7.0 mph 10.0 mph 92 % 0.00 in 47 W/m2
07:38 57.2 °F 54.9 °F 30.09 in NNE 6.0 mph 10.0 mph 92 % 0.00 in 60 W/m2
07:43 57.4 °F 55.1 °F 30.08 in NNE 5.0 mph 8.0 mph 92 % 0.00 in 42 W/m2
07:48 57.4 °F 55.1 °F 30.09 in NNE 5.0 mph 8.0 mph 92 % 0.00 in 33 W/m2
07:53 57.4 °F 55.1 °F 30.09 in NNE 5.0 mph 10.0 mph 92 % 0.00 in 98 W/m2
07:58 57.4 °F 55.1 °F 30.09 in NNE 5.0 mph 10.0 mph 92 % 0.00 in 84 W/m2
08:03 57.4 °F 55.1 °F 30.09 in NNE 5.0 mph 9.0 mph 92 % 0.00 in 74 W/m2
08:08 57.4 °F 55.4 °F 30.09 in NNE 5.0 mph 9.0 mph 93 % 0.00 in 70 W/m2
08:13 57.4 °F 55.4 °F 30.09 in NNE 4.0 mph 9.0 mph 93 % 0.00 in 58 W/m2
08:18 57.2 °F 55.2 °F 30.09 in NE 3.0 mph 8.0 mph 93 % 0.00 in 54 W/m2
08:23 57.0 °F 55.0 °F 30.09 in NNE 3.0 mph 8.0 mph 93 % 0.00 in 58 W/m2
08:28 57.0 °F 55.0 °F 30.09 in NE 3.0 mph 7.0 mph 93 % 0.00 in 77 W/m2
08:33 57.0 °F 54.7 °F 30.09 in NE 4.0 mph 7.0 mph 92 % 0.00 in 83 W/m2
08:38 57.0 °F 54.7 °F 30.10 in NNE 4.0 mph 7.0 mph 92 % 0.00 in 84 W/m2
08:43 57.2 °F 54.9 °F 30.10 in NNE 3.0 mph 7.0 mph 92 % 0.00 in 86 W/m2
08:48 57.4 °F 55.1 °F 30.10 in North 3.0 mph 7.0 mph 92 % 0.00 in 76 W/m2
08:53 57.4 °F 55.1 °F 30.10 in North 3.0 mph 6.0 mph 92 % 0.00 in 81 W/m2
08:58 57.4 °F 55.1 °F 30.10 in North 3.0 mph 6.0 mph 92 % 0.00 in 77 W/m2
09:03 57.4 °F 55.1 °F 30.10 in North 2.0 mph 6.0 mph 92 % 0.00 in 60 W/m2
09:08 57.4 °F 55.1 °F 30.10 in North 2.0 mph 7.0 mph 92 % 0.00 in 91 W/m2
09:13 57.4 °F 55.1 °F 30.10 in North 3.0 mph 7.0 mph 92 % 0.00 in 118 W/m2
09:14 57.4 °F 55.1 °F 30.10 in North 3.0 mph 7.0 mph 92 % 0.00 in 127 W/m2
09:19 57.4 °F 55.1 °F 30.10 in North 3.0 mph 7.0 mph 92 % 0.00 in 88 W/m2
09:24 57.4 °F 55.1 °F 30.10 in NNE 3.0 mph 6.0 mph 92 % 0.00 in 97 W/m2
09:29 57.4 °F 55.1 °F 30.10 in NNE 3.0 mph 6.0 mph 92 % 0.00 in 90 W/m2
09:34 57.4 °F 55.1 °F 30.10 in NNE 1.0 mph 7.0 mph 92 % 0.00 in 109 W/m2
09:39 57.4 °F 55.1 °F 30.10 in North 2.0 mph 7.0 mph 92 % 0.00 in 79 W/m2
09:44 57.4 °F 55.1 °F 30.10 in NNE 3.0 mph 6.0 mph 92 % 0.00 in 86 W/m2
09:49 57.4 °F 55.1 °F 30.10 in NNE 4.0 mph 7.0 mph 92 % 0.00 in 100 W/m2
09:54 57.4 °F 55.1 °F 30.10 in NNE 3.0 mph 7.0 mph 92 % 0.00 in 130 W/m2
09:59 57.6 °F 55.6 °F 30.11 in North 2.0 mph 6.0 mph 93 % 0.00 in 134 W/m2
10:04 57.7 °F 55.7 °F 30.11 in NNW 4.0 mph 8.0 mph 93 % 0.00 in 137 W/m2
10:09 57.7 °F 55.7 °F 30.11 in North 4.0 mph 8.0 mph 93 % 0.00 in 134 W/m2
10:14 57.9 °F 55.9 °F 30.11 in North 3.0 mph 8.0 mph 93 % 0.00 in 121 W/m2
10:19 57.9 °F 55.9 °F 30.11 in NNE 2.0 mph 6.0 mph 93 % 0.00 in 107 W/m2
10:24 58.1 °F 56.1 °F 30.11 in North 2.0 mph 6.0 mph 93 % 0.00 in 139 W/m2
10:25 58.1 °F 56.1 °F 30.11 in North 2.0 mph 7.0 mph 93 % 0.00 in 148 W/m2
10:30 58.3 °F 56.0 °F 30.11 in NNW 2.0 mph 8.0 mph 92 % 0.00 in 137 W/m2
10:35 58.3 °F 56.0 °F 30.11 in NNW 3.0 mph 8.0 mph 92 % 0.00 in 158 W/m2
10:40 58.3 °F 56.0 °F 30.11 in NNW 3.0 mph 7.0 mph 92 % 0.00 in 144 W/m2
10:45 58.1 °F 55.8 °F 30.11 in North 3.0 mph 6.0 mph 92 % 0.00 in 221 W/m2
10:50 58.3 °F 56.0 °F 30.11 in NNE 3.0 mph 6.0 mph 92 % 0.00 in 207 W/m2
10:55 58.5 °F 55.8 °F 30.11 in NNE 3.0 mph 8.0 mph 91 % 0.00 in 144 W/m2
11:00 58.5 °F 55.8 °F 30.11 in North 3.0 mph 8.0 mph 91 % 0.00 in 139 W/m2
11:05 58.6 °F 56.0 °F 30.11 in NNE 3.0 mph 8.0 mph 91 % 0.00 in 149 W/m2
11:10 58.6 °F 56.0 °F 30.11 in North 4.0 mph 8.0 mph 91 % 0.00 in 151 W/m2
11:11 58.6 °F 56.0 °F 30.11 in North 4.0 mph 8.0 mph 91 % 0.00 in 149 W/m2
11:16 58.8 °F 55.9 °F 30.11 in North 3.0 mph 7.0 mph 90 % 0.00 in 193 W/m2
11:21 58.8 °F 55.9 °F 30.11 in NNE 2.0 mph 7.0 mph 90 % 0.00 in 186 W/m2
11:26 58.8 °F 55.9 °F 30.11 in NNE 3.0 mph 7.0 mph 90 % 0.00 in 274 W/m2
11:31 59.0 °F 56.1 °F 30.11 in NNE 2.0 mph 6.0 mph 90 % 0.00 in 264 W/m2
11:36 59.4 °F 56.1 °F 30.11 in NNE 1.0 mph 6.0 mph 89 % 0.00 in 220 W/m2
11:41 59.5 °F 56.3 °F 30.11 in NNE 2.0 mph 7.0 mph 89 % 0.00 in 269 W/m2
11:46 59.9 °F 56.3 °F 30.11 in NNE 3.0 mph 7.0 mph 88 % 0.00 in 202 W/m2
11:51 60.3 °F 56.7 °F 30.11 in NNE 2.0 mph 6.0 mph 88 % 0.00 in 216 W/m2
11:56 60.3 °F 56.4 °F 30.11 in NNE 2.0 mph 7.0 mph 87 % 0.00 in 176 W/m2
12:01 60.4 °F 56.6 °F 30.11 in NE 2.0 mph 7.0 mph 87 % 0.00 in 176 W/m2
12:06 60.4 °F 56.6 °F 30.11 in NE 2.0 mph 6.0 mph 87 % 0.00 in 297 W/m2
12:11 60.6 °F 56.7 °F 30.11 in NE 2.0 mph 5.0 mph 87 % 0.00 in 431 W/m2
12:17 61.2 °F 57.3 °F 30.11 in ENE 1.0 mph 5.0 mph 87 % 0.00 in 357 W/m2
12:22 61.5 °F 57.3 °F 30.11 in ENE 1.0 mph 4.0 mph 86 % 0.00 in 353 W/m2
12:27 62.1 °F 57.2 °F 30.11 in ENE 2.0 mph 6.0 mph 84 % 0.00 in 329 W/m2
12:32 62.2 °F 57.3 °F 30.11 in NE 3.0 mph 7.0 mph 84 % 0.00 in 352 W/m2
12:37 62.2 °F 57.3 °F 30.11 in NE 2.0 mph 7.0 mph 84 % 0.00 in 315 W/m2
12:42 62.4 °F 57.2 °F 30.11 in NE 1.0 mph 5.0 mph 83 % 0.00 in 362 W/m2
12:47 63.0 °F 57.7 °F 30.11 in NNE 1.0 mph 6.0 mph 83 % 0.00 in 276 W/m2
12:52 63.1 °F 57.6 °F 30.11 in NNE 1.0 mph 6.0 mph 82 % 0.00 in 417 W/m2
12:57 63.7 °F 58.1 °F 30.11 in NNE 1.0 mph 5.0 mph 82 % 0.00 in 378 W/m2
13:02 64.0 °F 57.7 °F 30.11 in NE 1.0 mph 5.0 mph 80 % 0.00 in 308 W/m2
13:07 64.4 °F 57.7 °F 30.11 in NE 1.0 mph 5.0 mph 79 % 0.00 in 357 W/m2
13:12 64.8 °F 58.1 °F 30.11 in North 1.0 mph 5.0 mph 79 % 0.00 in 489 W/m2
13:17 64.9 °F 57.9 °F 30.11 in NNW 1.0 mph 5.0 mph 78 % 0.00 in 364 W/m2
13:22 65.1 °F 58.1 °F 30.11 in NW 1.0 mph 4.0 mph 78 % 0.00 in 403 W/m2
13:27 65.3 °F 58.3 °F 30.11 in NE 1.0 mph 6.0 mph 78 % 0.00 in 380 W/m2
13:32 65.5 °F 58.4 °F 30.11 in ENE 2.0 mph 6.0 mph 78 % 0.00 in 371 W/m2
13:37 65.5 °F 58.1 °F 30.10 in ENE 2.0 mph 6.0 mph 77 % 0.00 in 403 W/m2
13:42 65.7 °F 58.6 °F 30.10 in ENE 2.0 mph 6.0 mph 78 % 0.00 in 457 W/m2
13:47 66.0 °F 58.2 °F 30.10 in North 2.0 mph 6.0 mph 76 % 0.00 in 1053 W/m2
13:52 66.9 °F 58.7 °F 30.10 in NNW 2.0 mph 6.0 mph 75 % 0.00 in 1134 W/m2
13:57 67.8 °F 58.8 °F 30.10 in North 2.0 mph 6.0 mph 73 % 0.00 in 1146 W/m2
14:02 68.7 °F 58.9 °F 30.10 in NNW 3.0 mph 7.0 mph 71 % 0.00 in 656 W/m2
14:07 69.1 °F 58.9 °F 30.10 in NNW 3.0 mph 7.0 mph 70 % 0.00 in 339 W/m2
14:12 68.9 °F 58.3 °F 30.10 in North 4.0 mph 10.0 mph 69 % 0.00 in 332 W/m2
14:17 68.2 °F 58.4 °F 30.10 in NNE 5.0 mph 10.0 mph 71 % 0.00 in 267 W/m2
14:22 67.6 °F 58.7 °F 30.10 in NE 5.0 mph 8.0 mph 73 % 0.00 in 469 W/m2
14:27 67.5 °F 58.9 °F 30.10 in ENE 4.0 mph 8.0 mph 74 % 0.00 in 322 W/m2
14:32 67.1 °F 58.5 °F 30.10 in ENE 3.0 mph 6.0 mph 74 % 0.00 in 345 W/m2
14:37 67.1 °F 58.5 °F 30.10 in NE 4.0 mph 8.0 mph 74 % 0.00 in 288 W/m2
14:42 66.9 °F 58.4 °F 30.10 in NE 4.0 mph 8.0 mph 74 % 0.00 in 283 W/m2
14:43 66.9 °F 58.4 °F 30.09 in NE 4.0 mph 8.0 mph 74 % 0.00 in 283 W/m2
14:48 66.9 °F 58.0 °F 30.09 in NNE 3.0 mph 7.0 mph 73 % 0.00 in 362 W/m2
14:53 67.3 °F 58.3 °F 30.09 in North 3.0 mph 6.0 mph 73 % 0.00 in 577 W/m2
14:58 67.5 °F 58.1 °F 30.09 in NNE 1.0 mph 5.0 mph 72 % 0.00 in 591 W/m2
15:03 68.2 °F 59.2 °F 30.09 in NE 3.0 mph 9.0 mph 73 % 0.00 in 1051 W/m2
15:08 68.4 °F 58.6 °F 30.09 in NE 4.0 mph 9.0 mph 71 % 0.00 in 327 W/m2
15:13 68.2 °F 58.4 °F 30.09 in NE 4.0 mph 9.0 mph 71 % 0.00 in 387 W/m2
15:18 68.0 °F 58.2 °F 30.09 in NE 3.0 mph 8.0 mph 71 % 0.00 in 295 W/m2
15:23 68.0 °F 58.6 °F 30.09 in NNE 2.0 mph 6.0 mph 72 % 0.00 in 276 W/m2
15:28 68.2 °F 58.4 °F 30.09 in North 3.0 mph 7.0 mph 71 % 0.00 in 858 W/m2
15:33 68.7 °F 58.5 °F 30.09 in North 3.0 mph 7.0 mph 70 % 0.00 in 914 W/m2
15:38 69.4 °F 58.8 °F 30.09 in East 2.0 mph 6.0 mph 69 % 0.00 in 1023 W/m2
15:43 70.0 °F 59.3 °F 30.09 in East 3.0 mph 8.0 mph 69 % 0.00 in 292 W/m2
15:48 69.8 °F 59.2 °F 30.09 in NE 4.0 mph 8.0 mph 69 % 0.00 in 199 W/m2
15:53 69.1 °F 58.9 °F 30.08 in NE 5.0 mph 9.0 mph 70 % 0.00 in 195 W/m2
15:58 68.5 °F 58.8 °F 30.08 in NE 5.0 mph 9.0 mph 71 % 0.00 in 241 W/m2
16:03 68.2 °F 58.4 °F 30.08 in NE 5.0 mph 9.0 mph 71 % 0.00 in 287 W/m2
16:08 67.8 °F 58.1 °F 30.08 in NE 6.0 mph 9.0 mph 71 % 0.00 in 272 W/m2
16:13 67.6 °F 58.7 °F 30.08 in NE 6.0 mph 12.0 mph 73 % 0.00 in 316 W/m2
16:18 67.5 °F 58.9 °F 30.08 in NE 6.0 mph 12.0 mph 74 % 0.00 in 325 W/m2
16:23 67.3 °F 58.3 °F 30.08 in ENE 5.0 mph 10.0 mph 73 % 0.00 in 285 W/m2
16:28 67.3 °F 58.3 °F 30.08 in ENE 6.0 mph 12.0 mph 73 % 0.00 in 274 W/m2
16:30 67.3 °F 58.7 °F 30.08 in ENE 6.0 mph 12.0 mph 74 % 0.00 in 406 W/m2
16:36 67.3 °F 58.7 °F 30.08 in NE 6.0 mph 12.0 mph 74 % 0.00 in 308 W/m2
16:41 67.3 °F 58.7 °F 30.08 in ENE 5.0 mph 9.0 mph 74 % 0.00 in 243 W/m2
16:46 67.3 °F 58.3 °F 30.08 in ENE 5.0 mph 10.0 mph 73 % 0.00 in 260 W/m2
16:51 67.3 °F 58.3 °F 30.08 in ENE 5.0 mph 10.0 mph 73 % 0.00 in 292 W/m2
16:56 67.6 °F 59.1 °F 30.08 in NE 4.0 mph 10.0 mph 74 % 0.00 in 355 W/m2
17:01 67.6 °F 58.7 °F 30.08 in ENE 5.0 mph 10.0 mph 73 % 0.00 in 330 W/m2
17:06 67.6 °F 59.1 °F 30.07 in ENE 6.0 mph 10.0 mph 74 % 0.00 in 508 W/m2
17:11 67.8 °F 58.8 °F 30.07 in NE 5.0 mph 10.0 mph 73 % 0.00 in 469 W/m2
17:16 68.2 °F 58.8 °F 30.07 in NE 5.0 mph 10.0 mph 72 % 0.00 in 478 W/m2
17:21 68.2 °F 58.4 °F 30.07 in NE 5.0 mph 9.0 mph 71 % 0.00 in 360 W/m2
17:26 68.2 °F 58.4 °F 30.07 in NNE 5.0 mph 9.0 mph 71 % 0.00 in 350 W/m2
17:31 68.4 °F 59.0 °F 30.07 in NNE 5.0 mph 9.0 mph 72 % 0.00 in 547 W/m2
17:36 68.4 °F 58.6 °F 30.07 in NE 5.0 mph 8.0 mph 71 % 0.00 in 302 W/m2
17:41 68.5 °F 58.8 °F 30.07 in NE 5.0 mph 11.0 mph 71 % 0.00 in 195 W/m2
17:46 68.2 °F 58.4 °F 30.07 in ENE 5.0 mph 11.0 mph 71 % 0.00 in 160 W/m2
17:51 68.0 °F 58.2 °F 30.07 in East 5.0 mph 10.0 mph 71 % 0.00 in 169 W/m2
17:56 67.6 °F 58.3 °F 30.07 in East 4.0 mph 8.0 mph 72 % 0.00 in 121 W/m2
18:06 67.3 °F 58.7 °F 30.07 in ENE 5.0 mph 10.0 mph 74 % 0.00 in 172 W/m2
18:11 67.1 °F 58.9 °F 30.07 in ENE 4.0 mph 10.0 mph 75 % 0.00 in 113 W/m2
18:16 67.1 °F 58.5 °F 30.07 in ENE 4.0 mph 9.0 mph 74 % 0.00 in 149 W/m2
18:21 66.9 °F 58.4 °F 30.07 in ENE 5.0 mph 8.0 mph 74 % 0.00 in 318 W/m2
18:26 66.9 °F 58.4 °F 30.07 in ENE 4.0 mph 8.0 mph 74 % 0.00 in 221 W/m2
18:31 67.1 °F 58.5 °F 30.06 in East 3.0 mph 8.0 mph 74 % 0.00 in 144 W/m2
18:36 67.3 °F 58.7 °F 30.06 in ESE 3.0 mph 8.0 mph 74 % 0.00 in 104 W/m2
18:42 67.1 °F 58.5 °F 30.07 in East 4.0 mph 9.0 mph 74 % 0.00 in 104 W/m2
18:47 66.7 °F 58.2 °F 30.07 in East 4.0 mph 9.0 mph 74 % 0.00 in 105 W/m2
18:52 66.6 °F 58.4 °F 30.07 in ENE 3.0 mph 8.0 mph 75 % 0.00 in 97 W/m2
18:57 66.6 °F 58.4 °F 30.07 in ENE 2.0 mph 6.0 mph 75 % 0.00 in 65 W/m2
19:02 66.6 °F 58.4 °F 30.07 in East 2.0 mph 6.0 mph 75 % 0.00 in 60 W/m2
19:07 66.6 °F 58.8 °F 30.07 in ESE 1.0 mph 6.0 mph 76 % 0.00 in 67 W/m2
19:12 66.4 °F 58.6 °F 30.07 in ENE 2.0 mph 8.0 mph 76 % 0.00 in 42 W/m2
19:17 66.4 °F 58.2 °F 30.07 in East 3.0 mph 8.0 mph 75 % 0.00 in 58 W/m2
19:22 66.0 °F 57.9 °F 30.07 in East 4.0 mph 8.0 mph 75 % 0.00 in 83 W/m2
19:27 66.0 °F 58.2 °F 30.07 in ENE 3.0 mph 8.0 mph 76 % 0.00 in 81 W/m2
19:32 65.8 °F 58.1 °F 30.07 in NE 4.0 mph 8.0 mph 76 % 0.00 in 58 W/m2
19:37 65.8 °F 58.4 °F 30.07 in NE 5.0 mph 9.0 mph 77 % 0.00 in 28 W/m2
19:42 65.5 °F 58.1 °F 30.07 in ENE 4.0 mph 9.0 mph 77 % 0.00 in 26 W/m2
19:47 65.3 °F 58.3 °F 30.07 in ENE 5.0 mph 9.0 mph 78 % 0.00 in 25 W/m2
19:52 65.1 °F 58.1 °F 30.07 in ENE 4.0 mph 8.0 mph 78 % 0.00 in 26 W/m2
19:57 64.9 °F 58.3 °F 30.07 in ENE 4.0 mph 8.0 mph 79 % 0.00 in 30 W/m2
20:02 64.8 °F 58.1 °F 30.07 in East 3.0 mph 8.0 mph 79 % 0.00 in 39 W/m2
20:07 64.6 °F 57.9 °F 30.08 in East 4.0 mph 10.0 mph 79 % 0.00 in 32 W/m2
20:12 64.6 °F 57.9 °F 30.08 in ENE 4.0 mph 10.0 mph 79 % 0.00 in 25 W/m2
20:13 64.6 °F 57.9 °F 30.08 in ENE 4.0 mph 10.0 mph 79 % 0.00 in 25 W/m2
20:18 64.4 °F 57.7 °F 30.08 in ENE 4.0 mph 9.0 mph 79 % 0.00 in 21 W/m2
20:23 64.2 °F 57.9 °F 30.08 in ENE 4.0 mph 9.0 mph 80 % 0.00 in 23 W/m2
20:28 64.0 °F 57.7 °F 30.08 in East 3.0 mph 8.0 mph 80 % 0.00 in 19 W/m2
20:33 64.0 °F 57.7 °F 30.08 in East 3.0 mph 9.0 mph 80 % 0.00 in 14 W/m2
20:38 63.9 °F 57.6 °F 30.08 in ENE 4.0 mph 9.0 mph 80 % 0.00 in 9 W/m2
20:43 63.7 °F 57.7 °F 30.08 in ENE 4.0 mph 9.0 mph 81 % 0.00 in 9 W/m2
20:48 63.3 °F 57.0 °F 30.08 in ENE 5.0 mph 10.0 mph 80 % 0.00 in 9 W/m2
20:53 63.1 °F 57.2 °F 30.08 in ENE 5.0 mph 10.0 mph 81 % 0.00 in 9 W/m2
20:58 63.1 °F 57.2 °F 30.08 in ENE 4.0 mph 12.0 mph 81 % 0.00 in 7 W/m2
21:03 63.0 °F 57.0 °F 30.08 in ENE 5.0 mph 12.0 mph 81 % 0.00 in 5 W/m2
21:08 62.6 °F 57.0 °F 30.08 in East 6.0 mph 11.0 mph 82 % 0.00 in 5 W/m2
21:13 62.2 °F 57.0 °F 30.09 in East 5.0 mph 11.0 mph 83 % 0.00 in 5 W/m2
21:18 62.2 °F 57.0 °F 30.08 in East 4.0 mph 9.0 mph 83 % 0.00 in 0 W/m2
21:23 62.1 °F 56.8 °F 30.09 in ENE 4.0 mph 8.0 mph 83 % 0.00 in 0 W/m2
21:28 61.7 °F 56.5 °F 30.09 in ENE 4.0 mph 8.0 mph 83 % 0.00 in 0 W/m2
21:33 61.5 °F 56.6 °F 30.09 in ENE 5.0 mph 8.0 mph 84 % 0.00 in 0 W/m2
21:38 61.3 °F 56.5 °F 30.09 in ENE 5.0 mph 10.0 mph 84 % 0.00 in 0 W/m2
21:43 61.2 °F 56.3 °F 30.10 in ENE 4.0 mph 10.0 mph 84 % 0.00 in 0 W/m2
21:48 61.0 °F 56.4 °F 30.10 in ENE 4.0 mph 8.0 mph 85 % 0.00 in 0 W/m2
21:53 60.8 °F 56.3 °F 30.10 in ENE 4.0 mph 8.0 mph 85 % 0.00 in 0 W/m2
21:58 60.4 °F 55.9 °F 30.10 in ENE 5.0 mph 9.0 mph 85 % 0.00 in 0 W/m2
22:03 60.3 °F 55.7 °F 30.10 in ENE 5.0 mph 9.0 mph 85 % 0.00 in 0 W/m2
22:08 60.1 °F 55.6 °F 30.10 in ENE 4.0 mph 9.0 mph 85 % 0.00 in 0 W/m2
22:13 59.9 °F 55.4 °F 30.10 in ENE 3.0 mph 9.0 mph 85 % 0.00 in 0 W/m2
22:18 59.7 °F 55.2 °F 30.10 in ENE 4.0 mph 9.0 mph 85 % 0.00 in 0 W/m2
22:23 59.5 °F 55.3 °F 30.10 in ENE 4.0 mph 9.0 mph 86 % 0.00 in 0 W/m2
22:28 59.5 °F 55.3 °F 30.10 in ENE 4.0 mph 9.0 mph 86 % 0.00 in 0 W/m2
22:33 59.4 °F 55.2 °F 30.10 in ENE 4.0 mph 8.0 mph 86 % 0.00 in 0 W/m2
22:38 59.4 °F 55.5 °F 30.10 in ENE 3.0 mph 7.0 mph 87 % 0.00 in 0 W/m2
22:43 59.4 °F 55.5 °F 30.10 in ENE 3.0 mph 6.0 mph 87 % 0.00 in 0 W/m2
22:48 59.2 °F 55.3 °F 30.10 in ENE 2.0 mph 6.0 mph 87 % 0.00 in 0 W/m2
22:53 59.2 °F 55.3 °F 30.10 in ENE 2.0 mph 6.0 mph 87 % 0.00 in 0 W/m2
22:58 59.2 °F 55.3 °F 30.10 in East 1.0 mph 6.0 mph 87 % 0.00 in 0 W/m2
23:04 59.0 °F 55.4 °F 30.09 in East 2.0 mph 6.0 mph 88 % 0.00 in 0 W/m2
23:09 59.0 °F 55.4 °F 30.09 in ESE 1.0 mph 6.0 mph 88 % 0.00 in 0 W/m2
23:14 59.0 °F 55.4 °F 30.09 in ESE 1.0 mph 4.0 mph 88 % 0.00 in 0 W/m2
23:19 58.8 °F 55.3 °F 30.09 in ENE 1.0 mph 5.0 mph 88 % 0.00 in 0 W/m2
23:24 58.8 °F 55.3 °F 30.09 in ENE 1.0 mph 5.0 mph 88 % 0.00 in 0 W/m2
23:29 58.8 °F 55.6 °F 30.10 in East 1.0 mph 5.0 mph 89 % 0.00 in 0 W/m2
23:34 58.8 °F 55.3 °F 30.09 in ESE 2.0 mph 6.0 mph 88 % 0.00 in 0 W/m2
23:39 58.8 °F 55.6 °F 30.09 in ESE 2.0 mph 6.0 mph 89 % 0.00 in 0 W/m2
23:44 58.8 °F 55.3 °F 30.09 in East 2.0 mph 5.0 mph 88 % 0.00 in 0 W/m2
23:49 58.6 °F 55.4 °F 30.09 in East 2.0 mph 5.0 mph 89 % 0.00 in 0 W/m2
23:54 58.6 °F 55.4 °F 30.09 in ENE 1.0 mph 6.0 mph 89 % 0.00 in 0 W/m2
23:59 58.6 °F 55.4 °F 30.09 in ENE 1.0 mph 6.0 mph 89 % 0.00 in 0 W/m2
Delerius-Weather
Compliments of Weather Underground - 2.25 mb

Data updates at regular intervals.